Time;durP1;ratioP1;P1;durP2;ratioP2;P2;SDS_P1;SDS_P2;PMS_P1;PMS_P2;Temp;Humidity;BMP_temperature;BMP_pressure;BME280_temperature;BME280_humidity;BME280_pressure;Samples;Min_cycle;Max_cycle;Signal;HPM_P1;HPM_P2
2022/09/13 00:00:50;;;;;;;8.83;5.57;;;9.80;99.90;;;;;;4959778;28;20422;-88
2022/09/13 00:03:18;;;;;;;10.20;6.50;;;9.80;99.90;;;;;;4956972;28;20416;-87
2022/09/13 00:05:46;;;;;;;10.48;7.30;;;9.80;99.90;;;;;;4963644;28;20401;-87
2022/09/13 00:08:16;;;;;;;9.45;6.82;;;9.80;99.90;;;;;;4961756;28;20406;-88
2022/09/13 00:10:44;;;;;;;11.48;7.70;;;9.80;99.90;;;;;;4972208;28;20444;-88
2022/09/13 00:13:14;;;;;;;10.70;7.53;;;9.90;99.90;;;;;;4970997;28;20551;-87
2022/09/13 00:15:47;;;;;;;9.98;6.97;;;9.90;99.90;;;;;;4963808;28;20537;-88
2022/09/13 00:18:17;;;;;;;11.80;7.60;;;9.90;99.90;;;;;;4972206;28;20781;-88
2022/09/13 00:20:45;;;;;;;10.23;6.53;;;9.90;99.90;;;;;;4970957;28;20499;-88
2022/09/13 00:23:12;;;;;;;12.32;7.57;;;9.90;99.90;;;;;;4973895;28;20417;-88
2022/09/13 00:25:40;;;;;;;9.27;7.03;;;9.90;99.90;;;;;;4973711;28;20457;-88
2022/09/13 00:28:08;;;;;;;11.13;6.93;;;9.90;99.90;;;;;;4971854;28;20406;-86
2022/09/13 00:30:35;;;;;;;8.30;6.05;;;9.80;99.90;;;;;;4949614;28;20404;-87
2022/09/13 00:33:03;;;;;;;12.60;7.80;;;9.80;99.90;;;;;;4967937;28;20793;-88
2022/09/13 00:35:31;;;;;;;11.23;7.80;;;9.80;99.90;;;;;;4963563;28;20408;-87
2022/09/13 00:38:00;;;;;;;9.40;6.65;;;9.90;99.90;;;;;;4972724;28;20510;-86
2022/09/13 00:40:29;;;;;;;12.70;8.20;;;9.90;99.90;;;;;;4974831;28;20420;-87
2022/09/13 00:42:57;;;;;;;11.77;7.68;;;9.90;99.90;;;;;;4970660;28;20729;-88
2022/09/13 00:45:24;;;;;;;14.65;8.10;;;9.90;99.90;;;;;;4965538;28;20466;-86
2022/09/13 00:48:00;;;;;;;12.68;7.63;;;9.80;99.90;;;;;;4964129;28;20497;-87
2022/09/13 00:50:36;;;;;;;9.70;6.88;;;9.80;99.90;;;;;;4965101;28;20440;-88
2022/09/13 00:53:03;;;;;;;12.48;8.52;;;9.80;99.90;;;;;;4973283;28;20406;-87
2022/09/13 00:55:36;;;;;;;13.48;7.72;;;9.70;99.90;;;;;;4959500;28;20495;-88
2022/09/13 00:58:12;;;;;;;16.88;8.77;;;9.80;99.90;;;;;;4965845;28;20889;-88
2022/09/13 01:00:40;;;;;;;9.30;6.82;;;9.90;99.90;;;;;;4955340;28;20409;-85
2022/09/13 01:03:12;;;;;;;11.03;7.47;;;9.90;99.90;;;;;;4970496;28;20396;-88
2022/09/13 01:05:47;;;;;;;11.70;8.05;;;9.90;99.90;;;;;;4964882;28;20495;-87
2022/09/13 01:08:21;;;;;;;11.52;8.18;;;9.80;99.90;;;;;;4959422;28;20777;-87
2022/09/13 01:10:55;;;;;;;13.77;8.75;;;9.80;99.90;;;;;;4971326;28;20482;-88
2022/09/13 01:13:25;;;;;;;11.82;8.27;;;9.80;99.90;;;;;;4970217;28;20412;-88
2022/09/13 01:15:52;;;;;;;14.20;8.40;;;9.90;99.90;;;;;;4970120;28;20408;-88
2022/09/13 01:18:20;;;;;;;12.27;8.38;;;9.80;99.90;;;;;;4962064;28;20408;-88
2022/09/13 01:21:16;;;;;;;11.98;7.93;;;9.80;99.90;;;;;;4965527;28;20442;-87
2022/09/13 01:24:03;;;;;;;10.57;7.45;;;9.90;99.90;;;;;;4966324;28;20473;-87
2022/09/13 01:26:53;;;;;;;10.55;7.45;;;9.80;99.90;;;;;;4970739;28;20417;-88
2022/09/13 01:29:38;;;;;;;10.38;7.25;;;9.80;99.90;;;;;;4964273;28;20496;-88
2022/09/13 01:32:27;;;;;;;11.50;8.38;;;9.80;99.90;;;;;;4972737;28;20877;-88
2022/09/13 01:35:22;;;;;;;12.30;8.70;;;9.80;99.90;;;;;;4970013;28;20410;-87
2022/09/13 01:38:01;;;;;;;12.48;8.35;;;9.80;99.90;;;;;;4946029;28;20437;-87
2022/09/13 01:40:35;;;;;;;10.10;7.00;;;9.80;99.90;;;;;;4959139;28;20419;-87
2022/09/13 01:43:19;;;;;;;12.25;8.70;;;9.90;99.90;;;;;;4957667;28;20485;-88
2022/09/13 01:46:07;;;;;;;11.10;7.65;;;9.80;99.90;;;;;;4971542;28;20506;-88
2022/09/13 01:49:05;;;;;;;10.65;7.30;;;9.80;99.90;;;;;;4980796;28;20495;-89
2022/09/13 01:51:46;;;;;;;13.10;8.15;;;9.80;99.90;;;;;;4965271;28;20911;-88
2022/09/13 01:54:44;;;;;;;12.38;8.50;;;9.80;99.90;;;;;;4964583;28;20899;-88
2022/09/13 01:57:37;;;;;;;12.20;7.72;;;9.80;99.90;;;;;;4972370;28;20834;-88
2022/09/13 02:00:14;;;;;;;10.38;7.85;;;9.80;99.90;;;;;;4961542;28;20917;-89
2022/09/13 02:02:49;;;;;;;11.85;7.70;;;9.80;99.90;;;;;;4972084;28;20503;-88
2022/09/13 02:05:25;;;;;;;9.52;7.40;;;9.70;99.90;;;;;;4972366;28;20406;-87
2022/09/13 02:08:06;;;;;;;9.65;7.13;;;9.80;99.90;;;;;;4968784;28;20811;-87
2022/09/13 02:10:45;;;;;;;10.52;7.50;;;9.80;99.90;;;;;;4962576;28;20400;-89
2022/09/13 02:13:19;;;;;;;10.73;8.13;;;9.80;99.90;;;;;;4953921;28;20416;-87
2022/09/13 02:15:51;;;;;;;9.02;6.90;;;9.80;99.90;;;;;;4967506;28;20893;-87
2022/09/13 02:18:32;;;;;;;10.55;7.80;;;9.80;99.90;;;;;;4964223;28;20414;-88
2022/09/13 02:21:22;;;;;;;9.70;7.53;;;9.80;99.90;;;;;;4975833;28;20412;-87
2022/09/13 02:23:53;;;;;;;12.13;8.27;;;9.90;99.90;;;;;;4972954;28;20760;-87
2022/09/13 02:26:23;;;;;;;9.15;6.85;;;9.90;99.90;;;;;;4962025;28;20404;-88
2022/09/13 02:28:53;;;;;;;11.43;7.68;;;9.90;99.90;;;;;;4954903;28;20498;-89
2022/09/13 02:31:35;;;;;;;14.02;6.53;;;9.90;99.90;;;;;;4961186;28;20396;-89
2022/09/13 02:34:19;;;;;;;9.55;6.78;;;9.80;99.90;;;;;;4960884;28;20392;-88
2022/09/13 02:36:49;;;;;;;8.90;6.03;;;9.80;99.90;;;;;;4966699;28;20413;-89
2022/09/13 02:39:21;;;;;;;10.98;7.47;;;9.80;99.90;;;;;;4969608;28;20436;-88
2022/09/13 02:42:07;;;;;;;9.35;7.07;;;9.70;99.90;;;;;;4970180;28;20885;-88
2022/09/13 02:44:46;;;;;;;10.45;7.53;;;9.80;99.90;;;;;;4960119;28;20471;-87
2022/09/13 02:47:33;;;;;;;9.48;7.07;;;9.80;99.90;;;;;;4962861;28;20408;-87
2022/09/13 02:50:13;;;;;;;10.40;7.63;;;9.80;99.90;;;;;;4969933;28;20404;-87
2022/09/13 02:53:02;;;;;;;8.00;6.40;;;9.90;99.90;;;;;;4968957;28;20392;-88
2022/09/13 02:55:54;;;;;;;9.95;7.28;;;9.90;99.90;;;;;;4960944;28;20799;-86
2022/09/13 02:58:27;;;;;;;10.98;8.00;;;9.90;99.90;;;;;;4961163;28;20409;-88
2022/09/13 03:00:55;;;;;;;10.88;7.55;;;9.90;99.90;;;;;;4955842;28;20434;-87
2022/09/13 03:03:23;;;;;;;10.00;7.25;;;9.90;99.90;;;;;;4962713;28;20404;-88
2022/09/13 03:05:52;;;;;;;10.32;6.82;;;9.90;99.90;;;;;;4968502;28;20388;-88
2022/09/13 03:08:21;;;;;;;11.00;7.88;;;9.80;99.90;;;;;;4959214;28;20465;-88
2022/09/13 03:11:00;;;;;;;10.85;7.47;;;9.80;99.90;;;;;;4969869;28;20416;-88
2022/09/13 03:13:34;;;;;;;11.43;7.90;;;9.90;99.90;;;;;;4972310;28;20443;-89
2022/09/13 03:16:15;;;;;;;11.88;7.95;;;9.90;99.90;;;;;;4964709;28;20448;-88
2022/09/13 03:19:12;;;;;;;11.20;8.23;;;9.90;99.90;;;;;;4966871;28;20420;-89
2022/09/13 03:21:57;;;;;;;11.48;7.85;;;9.90;99.90;;;;;;4950869;28;20400;-88
2022/09/13 03:24:33;;;;;;;12.17;8.30;;;9.90;99.90;;;;;;4958235;28;20394;-87
2022/09/13 03:27:34;;;;;;;13.10;8.50;;;9.90;99.90;;;;;;4968853;28;20427;-88
2022/09/13 03:30:07;;;;;;;9.15;6.72;;;9.90;99.90;;;;;;4958951;28;20420;-87
2022/09/13 03:32:56;;;;;;;9.98;7.07;;;9.90;99.90;;;;;;4970051;28;20421;-89
2022/09/13 03:35:33;;;;;;;13.73;7.53;;;9.80;99.90;;;;;;4964386;28;20495;-88
2022/09/13 03:38:15;;;;;;;9.20;6.38;;;9.80;99.90;;;;;;4969950;28;20495;-88
2022/09/13 03:41:01;;;;;;;10.30;7.20;;;9.90;99.90;;;;;;4963487;28;20816;-88
2022/09/13 03:43:37;;;;;;;10.15;7.15;;;9.80;99.90;;;;;;4970045;28;20430;-87
2022/09/13 03:46:12;;;;;;;9.00;6.65;;;9.80;99.90;;;;;;4982489;28;20458;-87
2022/09/13 03:48:41;;;;;;;8.60;5.78;;;9.80;99.90;;;;;;4980777;28;20422;-87
2022/09/13 03:51:10;;;;;;;9.82;6.65;;;9.80;99.90;;;;;;4967672;28;20414;-89
2022/09/13 03:54:00;;;;;;;10.50;6.72;;;9.80;99.90;;;;;;4972814;28;20494;-87
2022/09/13 03:56:28;;;;;;;10.10;6.75;;;9.80;99.90;;;;;;4981819;28;20987;-88
2022/09/13 03:58:55;;;;;;;8.93;6.35;;;9.80;99.90;;;;;;4966331;28;20527;-88
2022/09/13 04:01:24;;;;;;;9.77;7.00;;;9.80;99.90;;;;;;4967056;28;20415;-88
2022/09/13 04:03:52;;;;;;;8.57;6.30;;;9.90;99.90;;;;;;4964765;28;20387;-88
2022/09/13 04:06:23;;;;;;;9.40;6.50;;;9.80;99.90;;;;;;4972707;28;20885;-89
2022/09/13 04:08:52;;;;;;;9.60;6.60;;;9.80;99.90;;;;;;4973972;28;20893;-88
2022/09/13 04:11:22;;;;;;;7.82;6.18;;;9.90;99.90;;;;;;4964514;28;20417;-87
2022/09/13 04:13:49;;;;;;;9.20;6.78;;;9.90;99.90;;;;;;4971150;28;20414;-88
2022/09/13 04:16:17;;;;;;;9.83;6.87;;;9.90;99.90;;;;;;4965546;28;20448;-89
2022/09/13 04:18:44;;;;;;;8.23;6.15;;;9.90;99.90;;;;;;4969605;28;20844;-88
2022/09/13 04:21:12;;;;;;;10.27;5.82;;;9.80;99.90;;;;;;4972330;28;20415;-87
2022/09/13 04:23:39;;;;;;;8.50;6.27;;;9.90;99.90;;;;;;4964003;28;20493;-88
2022/09/13 04:26:08;;;;;;;7.82;5.47;;;9.90;99.90;;;;;;4974077;28;20406;-87
2022/09/13 04:28:36;;;;;;;9.07;6.10;;;9.90;99.90;;;;;;4964007;28;20853;-87
2022/09/13 04:31:03;;;;;;;11.07;7.28;;;9.80;99.90;;;;;;4965108;28;20406;-88
2022/09/13 04:33:31;;;;;;;9.32;5.68;;;9.90;99.90;;;;;;4961576;28;20412;-88
2022/09/13 04:35:59;;;;;;;9.40;6.17;;;9.80;99.90;;;;;;4969530;28;20507;-89
2022/09/13 04:38:27;;;;;;;7.00;5.38;;;9.90;99.90;;;;;;4948020;28;20879;-86
2022/09/13 04:40:56;;;;;;;8.77;6.22;;;9.90;99.90;;;;;;4964953;28;20415;-86
2022/09/13 04:43:23;;;;;;;7.97;5.80;;;9.90;99.90;;;;;;4969558;28;20431;-86
2022/09/13 04:45:51;;;;;;;27.13;7.45;;;9.90;99.90;;;;;;4965163;28;20452;-86
2022/09/13 04:48:18;;;;;;;10.63;6.70;;;9.90;99.90;;;;;;4967691;28;20434;-86
2022/09/13 04:50:46;;;;;;;8.43;6.30;;;9.90;99.90;;;;;;4966091;28;20413;-87
2022/09/13 04:53:13;;;;;;;8.60;6.22;;;9.80;99.90;;;;;;4956488;28;20891;-87
2022/09/13 04:55:41;;;;;;;8.37;6.10;;;9.90;99.90;;;;;;4970821;28;20437;-86
2022/09/13 04:58:09;;;;;;;9.20;6.10;;;9.90;99.90;;;;;;4973522;28;20402;-86
2022/09/13 05:00:36;;;;;;;9.73;7.03;;;9.90;99.90;;;;;;4965912;28;20434;-87
2022/09/13 05:03:04;;;;;;;11.10;7.38;;;9.90;99.90;;;;;;4969806;28;20440;-86
2022/09/13 05:05:31;;;;;;;7.82;6.00;;;9.90;99.90;;;;;;4964280;28;20855;-87
2022/09/13 05:07:59;;;;;;;9.32;6.50;;;9.90;99.90;;;;;;4970326;28;20498;-85
2022/09/13 05:10:26;;;;;;;7.47;5.38;;;9.90;99.90;;;;;;4964522;28;21005;-87
2022/09/13 05:12:54;;;;;;;8.10;6.18;;;9.90;99.90;;;;;;4973382;28;20882;-86
2022/09/13 05:15:22;;;;;;;7.20;5.72;;;9.90;99.90;;;;;;4973007;28;20403;-86
2022/09/13 05:17:49;;;;;;;7.10;5.40;;;9.90;99.90;;;;;;4967843;28;20412;-88
2022/09/13 05:20:17;;;;;;;8.50;6.57;;;9.90;99.90;;;;;;4972811;28;20772;-88
2022/09/13 05:22:44;;;;;;;9.10;6.80;;;9.90;99.90;;;;;;4969821;28;20404;-88
2022/09/13 05:25:12;;;;;;;9.82;6.55;;;9.90;99.90;;;;;;4962369;28;20411;-86
2022/09/13 05:27:40;;;;;;;8.45;6.00;;;9.90;99.90;;;;;;4968450;28;20503;-89
2022/09/13 05:30:08;;;;;;;7.28;6.10;;;9.90;99.90;;;;;;4969919;28;20455;-87
2022/09/13 05:32:35;;;;;;;13.57;9.88;;;9.90;99.90;;;;;;4969216;28;20396;-87
2022/09/13 05:35:03;;;;;;;10.48;7.28;;;9.90;99.90;;;;;;4955951;28;20480;-88
2022/09/13 05:37:31;;;;;;;7.80;6.00;;;9.90;99.90;;;;;;4953392;29;20483;-87
2022/09/13 05:39:58;;;;;;;7.63;5.90;;;9.90;99.90;;;;;;4969345;28;20864;-87
2022/09/13 05:42:38;;;;;;;9.20;6.43;;;9.90;99.90;;;;;;4953787;29;20459;-87
2022/09/13 05:45:07;;;;;;;8.83;6.30;;;9.90;99.90;;;;;;4953931;29;20463;-87
2022/09/13 05:47:34;;;;;;;8.23;6.50;;;9.80;99.90;;;;;;4969956;28;20886;-86
2022/09/13 05:50:02;;;;;;;9.77;6.65;;;9.90;99.90;;;;;;4953540;29;20392;-87
2022/09/13 05:52:54;;;;;;;7.25;5.70;;;9.90;99.90;;;;;;4969548;28;20796;-87
2022/09/13 05:55:22;;;;;;;8.77;6.45;;;9.90;99.90;;;;;;4969644;28;20408;-87
2022/09/13 05:57:49;;;;;;;7.78;6.60;;;9.90;99.90;;;;;;4954435;28;20392;-86
2022/09/13 06:00:17;;;;;;;7.50;5.75;;;9.90;99.90;;;;;;4969197;28;20404;-86
2022/09/13 06:02:45;;;;;;;7.07;5.87;;;9.90;99.90;;;;;;4969430;28;20404;-88
2022/09/13 06:05:13;;;;;;;8.88;6.60;;;9.90;99.90;;;;;;4954376;28;20399;-86
2022/09/13 06:07:41;;;;;;;9.32;6.32;;;9.90;99.90;;;;;;4953276;28;20398;-87
2022/09/13 06:10:10;;;;;;;6.90;5.77;;;9.90;99.90;;;;;;4969478;28;20392;-88
2022/09/13 06:12:37;;;;;;;8.65;6.80;;;9.90;99.90;;;;;;4968880;28;20396;-87
2022/09/13 06:15:05;;;;;;;8.80;6.70;;;9.80;99.90;;;;;;4969166;28;20396;-88
2022/09/13 06:17:34;;;;;;;7.93;6.22;;;9.90;99.90;;;;;;4969171;28;20400;-88
2022/09/13 06:20:03;;;;;;;7.88;6.03;;;9.80;99.90;;;;;;4969073;28;20501;-86
2022/09/13 06:22:32;;;;;;;9.00;6.37;;;9.80;99.90;;;;;;4969770;28;20488;-87
2022/09/13 06:24:59;;;;;;;10.27;6.32;;;9.80;99.90;;;;;;4953203;28;20483;-87
2022/09/13 06:27:30;;;;;;;9.07;7.20;;;9.90;99.90;;;;;;4954565;29;20435;-87
2022/09/13 06:29:57;;;;;;;8.10;6.80;;;9.90;99.90;;;;;;4968990;28;20474;-88
2022/09/13 06:32:25;;;;;;;8.80;6.40;;;9.90;99.90;;;;;;4969254;28;20435;-87
2022/09/13 06:34:53;;;;;;;7.93;5.70;;;9.80;99.90;;;;;;4952841;29;20408;-87
2022/09/13 06:37:21;;;;;;;11.40;7.40;;;9.80;99.90;;;;;;4969209;28;20396;-87
2022/09/13 06:39:48;;;;;;;8.80;6.63;;;9.90;99.90;;;;;;4953035;29;20529;-85
2022/09/13 06:42:16;;;;;;;10.20;7.85;;;9.90;99.90;;;;;;4954027;28;20412;-87
2022/09/13 06:44:47;;;;;;;9.60;7.85;;;9.90;99.90;;;;;;4968712;28;20467;-87
2022/09/13 06:47:15;;;;;;;7.90;6.60;;;9.90;99.90;;;;;;4968847;28;20412;-87
2022/09/13 06:49:42;;;;;;;8.77;6.80;;;9.90;99.90;;;;;;4953016;29;20463;-87
2022/09/13 06:52:10;;;;;;;10.45;7.13;;;10.00;99.90;;;;;;4953934;28;20404;-87
2022/09/13 06:54:38;;;;;;;7.25;6.03;;;10.00;99.90;;;;;;4968669;28;20561;-86
2022/09/13 06:57:06;;;;;;;9.10;6.23;;;10.00;99.90;;;;;;4953840;29;20422;-87
2022/09/13 06:59:33;;;;;;;8.82;6.65;;;10.00;99.90;;;;;;4968534;28;20404;-87
2022/09/13 07:02:01;;;;;;;10.90;7.53;;;9.80;99.90;;;;;;4968467;28;20440;-87
2022/09/13 07:04:31;;;;;;;9.18;7.22;;;9.90;99.90;;;;;;4968537;28;20804;-87
2022/09/13 07:06:59;;;;;;;13.95;7.35;;;9.90;99.90;;;;;;4968486;28;20389;-88
2022/09/13 07:09:27;;;;;;;9.40;6.93;;;9.80;99.90;;;;;;4952563;29;20487;-89
2022/09/13 07:11:55;;;;;;;10.20;7.63;;;9.80;99.90;;;;;;4953731;28;20408;-87
2022/09/13 07:14:28;;;;;;;9.95;7.70;;;9.80;99.90;;;;;;4953556;28;20479;-87
2022/09/13 07:16:56;;;;;;;10.13;8.30;;;9.80;99.90;;;;;;4952524;28;20431;-86
2022/09/13 07:19:28;;;;;;;11.15;8.50;;;9.90;99.90;;;;;;4972220;28;20875;-87
2022/09/13 07:21:56;;;;;;;10.35;8.13;;;9.90;99.90;;;;;;4972242;28;20412;-87
2022/09/13 07:24:25;;;;;;;9.52;7.30;;;9.90;99.90;;;;;;4971948;28;20415;-85
2022/09/13 07:26:53;;;;;;;11.60;8.32;;;10.00;99.90;;;;;;4957423;28;20961;-87
2022/09/13 07:29:22;;;;;;;11.83;7.80;;;10.00;99.90;;;;;;4957494;28;20893;-87
2022/09/13 07:31:53;;;;;;;13.30;8.90;;;9.90;99.90;;;;;;4972100;28;20906;-87
2022/09/13 07:34:23;;;;;;;12.80;9.20;;;10.00;99.90;;;;;;4957170;29;20859;-87
2022/09/13 07:36:51;;;;;;;12.03;8.70;;;10.00;99.90;;;;;;4956008;29;20431;-86
2022/09/13 07:39:19;;;;;;;11.57;8.07;;;10.00;99.90;;;;;;4972154;28;20404;-87
2022/09/13 07:41:50;;;;;;;9.68;6.72;;;10.10;99.90;;;;;;4971905;28;20965;-87
2022/09/13 07:44:18;;;;;;;11.00;7.38;;;10.00;99.90;;;;;;4971827;28;20451;-86
2022/09/13 07:46:45;;;;;;;11.70;7.80;;;9.90;99.90;;;;;;4971779;28;20392;-88
2022/09/13 07:49:16;;;;;;;8.25;6.80;;;9.90;99.90;;;;;;4955803;29;20404;-87
2022/09/13 07:51:44;;;;;;;8.77;7.00;;;9.90;99.90;;;;;;4971734;28;20539;-85
2022/09/13 07:54:14;;;;;;;9.43;7.22;;;9.90;99.90;;;;;;4955656;29;20396;-88
2022/09/13 07:56:43;;;;;;;10.33;7.50;;;9.80;99.90;;;;;;4971783;28;20447;-87
2022/09/13 07:59:12;;;;;;;8.00;6.37;;;9.90;99.90;;;;;;4971933;28;20831;-87
2022/09/13 08:01:45;;;;;;;9.23;6.75;;;9.90;99.90;;;;;;4956661;28;20413;-87
2022/09/13 08:04:16;;;;;;;8.07;6.50;;;9.90;99.90;;;;;;4971541;28;20427;-88
2022/09/13 08:06:45;;;;;;;6.85;5.95;;;9.90;99.90;;;;;;4971446;28;20495;-87
2022/09/13 08:09:14;;;;;;;7.80;5.93;;;9.90;99.90;;;;;;4955451;28;20404;-88
2022/09/13 08:11:44;;;;;;;7.75;6.00;;;10.00;99.90;;;;;;4971623;28;20408;-87
2022/09/13 08:14:14;;;;;;;7.22;5.90;;;10.00;99.90;;;;;;4955544;29;20411;-87
2022/09/13 08:16:42;;;;;;;8.52;6.90;;;10.00;99.90;;;;;;4956408;29;20396;-87
2022/09/13 08:19:15;;;;;;;9.70;7.32;;;10.00;99.90;;;;;;4956391;28;20728;-87
2022/09/13 08:21:43;;;;;;;8.60;6.47;;;10.10;99.90;;;;;;4955421;29;20427;-87
2022/09/13 08:24:20;;;;;;;7.80;6.70;;;10.10;99.90;;;;;;4971211;28;20513;-87
2022/09/13 08:26:48;;;;;;;7.90;6.43;;;10.10;99.90;;;;;;4955573;29;20407;-87
2022/09/13 08:29:16;;;;;;;8.53;6.60;;;10.10;99.90;;;;;;4970169;28;20412;-87
2022/09/13 08:31:44;;;;;;;7.97;6.10;;;10.10;99.90;;;;;;4955028;28;20450;-87
2022/09/13 08:34:13;;;;;;;7.88;6.22;;;10.10;99.90;;;;;;4970872;28;20408;-88
2022/09/13 08:36:42;;;;;;;7.30;5.80;;;10.10;99.90;;;;;;4970800;28;20483;-87
2022/09/13 08:39:13;;;;;;;8.50;5.68;;;10.10;99.90;;;;;;4954908;29;20782;-88
2022/09/13 08:41:51;;;;;;;8.13;6.20;;;10.10;99.90;;;;;;4971013;28;20420;-87
2022/09/13 08:44:32;;;;;;;7.93;5.30;;;10.10;99.90;;;;;;4955334;29;20393;-89
2022/09/13 08:47:13;;;;;;;9.13;5.70;;;10.20;99.90;;;;;;4955078;29;20421;-88
2022/09/13 08:49:45;;;;;;;7.55;5.88;;;10.20;99.90;;;;;;4955907;28;20447;-88
2022/09/13 08:52:18;;;;;;;6.95;5.15;;;10.30;99.90;;;;;;4970794;28;20819;-87
2022/09/13 08:54:47;;;;;;;6.55;5.38;;;10.30;99.90;;;;;;4956076;28;20396;-87
2022/09/13 08:57:14;;;;;;;8.40;6.00;;;10.30;99.90;;;;;;4956093;28;20399;-88
2022/09/13 09:00:02;;;;;;;7.75;5.93;;;10.30;99.90;;;;;;4970744;28;20892;-87
2022/09/13 09:02:52;;;;;;;7.68;6.15;;;10.30;99.90;;;;;;4970866;28;20440;-88
2022/09/13 09:05:27;;;;;;;7.53;6.07;;;10.30;99.90;;;;;;4970507;28;20760;-87
2022/09/13 09:08:01;;;;;;;8.73;6.38;;;10.30;99.90;;;;;;4954783;29;20396;-87
2022/09/13 09:10:31;;;;;;;9.00;6.63;;;10.30;99.90;;;;;;4970332;28;20396;-86
2022/09/13 09:13:04;;;;;;;8.85;6.50;;;10.30;99.90;;;;;;4970334;28;20401;-88
2022/09/13 09:15:44;;;;;;;9.90;6.15;;;10.30;99.90;;;;;;4970676;28;20491;-87
2022/09/13 09:18:18;;;;;;;7.30;5.93;;;10.30;99.90;;;;;;4970311;28;20411;-88
2022/09/13 09:20:52;;;;;;;7.13;5.97;;;10.40;99.90;;;;;;4955337;28;20396;-87
2022/09/13 09:23:24;;;;;;;9.75;5.85;;;10.40;99.90;;;;;;4969856;28;20416;-87
2022/09/13 09:26:13;;;;;;;7.10;5.28;;;10.40;99.90;;;;;;4955259;28;20895;-88
2022/09/13 09:28:40;;;;;;;7.10;5.47;;;10.40;99.90;;;;;;4955089;29;20921;-87
2022/09/13 09:31:37;;;;;;;8.45;5.90;;;10.40;99.90;;;;;;4954021;29;20392;-87
2022/09/13 09:34:41;;;;;;;6.63;5.15;;;10.40;99.90;;;;;;4970209;28;20767;-86
2022/09/13 09:37:25;;;;;;;5.73;4.80;;;10.40;99.90;;;;;;4969955;28;20392;-88
2022/09/13 09:40:06;;;;;;;6.97;5.07;;;10.40;99.90;;;;;;4969683;28;20408;-87
2022/09/13 09:42:41;;;;;;;7.03;5.00;;;10.50;99.90;;;;;;4953786;29;20453;-88
2022/09/13 09:45:27;;;;;;;6.60;5.03;;;10.50;99.90;;;;;;4954999;29;20427;-89
2022/09/13 09:48:04;;;;;;;6.78;4.80;;;10.50;99.90;;;;;;4953669;29;20403;-88
2022/09/13 09:50:37;;;;;;;5.95;4.53;;;10.60;99.90;;;;;;4954870;28;20398;-88
2022/09/13 09:53:13;;;;;;;5.22;4.47;;;10.60;99.90;;;;;;4969661;28;20402;-89
2022/09/13 09:56:10;;;;;;;6.25;4.93;;;10.60;99.90;;;;;;4953639;29;20395;-88
2022/09/13 09:58:43;;;;;;;5.88;4.40;;;10.60;99.90;;;;;;4969562;28;20408;-87
2022/09/13 10:01:33;;;;;;;5.55;4.55;;;10.60;99.90;;;;;;4969608;28;20404;-87
2022/09/13 10:04:18;;;;;;;6.03;4.43;;;10.60;99.90;;;;;;4955309;28;20459;-87
2022/09/13 10:06:46;;;;;;;5.25;4.40;;;10.60;99.90;;;;;;4969889;28;20942;-87
2022/09/13 10:09:15;;;;;;;5.68;4.00;;;10.60;99.90;;;;;;4953436;29;20428;-86
2022/09/13 10:11:48;;;;;;;4.82;4.00;;;10.70;99.90;;;;;;4953443;28;20392;-87
2022/09/13 10:14:37;;;;;;;4.95;4.28;;;10.70;99.90;;;;;;4954440;28;20414;-87
2022/09/13 10:17:14;;;;;;;5.10;3.90;;;10.70;99.90;;;;;;4969427;28;20811;-87
2022/09/13 10:19:53;;;;;;;6.00;3.95;;;10.70;99.90;;;;;;4969784;28;20435;-86
2022/09/13 10:22:21;;;;;;;5.33;4.07;;;10.70;99.90;;;;;;4969067;28;20491;-87
2022/09/13 10:24:49;;;;;;;4.63;3.70;;;10.70;99.90;;;;;;4954051;29;20479;-88
2022/09/13 10:27:34;;;;;;;6.15;4.00;;;10.70;99.90;;;;;;4954165;29;20400;-88
2022/09/13 10:30:05;;;;;;;4.53;3.63;;;10.70;99.90;;;;;;4954270;29;20859;-85
2022/09/13 10:32:33;;;;;;;5.60;4.05;;;10.70;99.90;;;;;;4968962;28;20490;-88
2022/09/13 10:35:16;;;;;;;6.22;3.88;;;10.70;99.90;;;;;;4953287;29;20506;-88
2022/09/13 10:37:44;;;;;;;5.18;4.00;;;10.70;99.90;;;;;;4954364;28;20424;-86
2022/09/13 10:40:33;;;;;;;5.43;3.92;;;10.70;99.90;;;;;;4952980;28;20906;-86
2022/09/13 10:43:03;;;;;;;5.93;4.30;;;10.70;99.90;;;;;;4953836;29;20412;-86
2022/09/13 10:45:31;;;;;;;5.13;4.20;;;10.70;99.90;;;;;;4954322;29;20395;-88
2022/09/13 10:48:19;;;;;;;6.68;4.28;;;10.70;99.90;;;;;;4953410;29;20459;-88
2022/09/13 10:51:03;;;;;;;5.20;4.40;;;10.70;99.90;;;;;;4953913;29;20498;-88
2022/09/13 10:53:37;;;;;;;5.07;4.22;;;10.70;99.90;;;;;;4951956;28;20427;-87
2022/09/13 10:56:18;;;;;;;5.28;4.68;;;10.70;99.90;;;;;;4969100;28;20835;-88
2022/09/13 10:58:45;;;;;;;5.82;4.50;;;10.70;99.90;;;;;;4953883;28;20456;-87
2022/09/13 11:01:37;;;;;;;4.63;4.20;;;10.80;99.90;;;;;;4952938;28;20404;-87
2022/09/13 11:04:50;;;;;;;6.10;4.45;;;10.70;99.90;;;;;;4968230;28;20479;-86
2022/09/13 11:07:43;;;;;;;5.03;4.20;;;10.80;99.90;;;;;;4953816;28;20404;-87
2022/09/13 11:10:38;;;;;;;5.80;4.25;;;10.80;99.90;;;;;;4951095;28;20411;-87
2022/09/13 11:13:15;;;;;;;6.53;4.43;;;10.80;99.90;;;;;;4968503;28;20406;-87
2022/09/13 11:16:05;;;;;;;5.10;4.10;;;10.80;99.90;;;;;;4953777;28;20874;-86
2022/09/13 11:19:16;;;;;;;6.28;4.82;;;10.70;99.90;;;;;;4968436;28;20918;-89
2022/09/13 11:21:55;;;;;;;6.20;4.47;;;10.70;99.90;;;;;;4968463;28;20475;-87
2022/09/13 11:24:42;;;;;;;6.90;4.80;;;10.80;99.90;;;;;;4968316;28;20475;-87
2022/09/13 11:27:35;;;;;;;7.03;4.80;;;10.70;99.90;;;;;;4953680;28;20441;-87
2022/09/13 11:30:23;;;;;;;6.65;4.72;;;10.80;99.90;;;;;;4968665;28;20812;-87
2022/09/13 11:33:22;;;;;;;7.97;4.80;;;10.80;99.90;;;;;;4953487;28;20435;-87
2022/09/13 11:36:09;;;;;;;6.22;4.50;;;10.80;99.90;;;;;;4953116;28;20902;-86
2022/09/13 11:39:01;;;;;;;6.25;4.45;;;10.90;99.90;;;;;;4964042;28;20483;-86
2022/09/13 11:41:42;;;;;;;6.45;4.50;;;10.90;99.90;;;;;;4968267;28;20575;-88
2022/09/13 11:44:36;;;;;;;6.22;4.85;;;10.90;99.90;;;;;;4968376;28;20495;-86
2022/09/13 11:47:11;;;;;;;6.20;4.85;;;10.90;99.90;;;;;;4932709;29;20919;-87
2022/09/13 11:49:57;;;;;;;6.10;4.55;;;10.90;99.90;;;;;;4968344;28;20446;-88
2022/09/13 11:52:40;;;;;;;5.25;4.32;;;11.00;99.90;;;;;;4951935;29;20482;-87
2022/09/13 11:55:32;;;;;;;5.55;4.53;;;11.00;99.90;;;;;;4953273;28;20392;-87
2022/09/13 11:58:03;;;;;;;5.25;4.43;;;11.00;99.90;;;;;;4968237;28;20420;-86
2022/09/13 12:00:39;;;;;;;6.57;4.57;;;11.00;99.90;;;;;;4955159;28;20413;-87
2022/09/13 12:03:27;;;;;;;5.20;4.60;;;11.00;99.90;;;;;;4966172;28;20517;-88
2022/09/13 12:06:03;;;;;;;5.03;4.53;;;11.00;99.90;;;;;;4962612;28;20521;-87
2022/09/13 12:08:36;;;;;;;6.80;4.53;;;11.10;99.90;;;;;;4975998;28;20394;-87
2022/09/13 12:11:14;;;;;;;6.15;4.50;;;11.00;99.90;;;;;;4977769;28;20401;-87
2022/09/13 12:14:03;;;;;;;6.03;4.45;;;11.10;99.90;;;;;;4989338;28;20482;-88
2022/09/13 12:16:50;;;;;;;5.53;4.38;;;11.10;99.90;;;;;;4955718;29;20400;-89
2022/09/13 12:19:23;;;;;;;5.63;4.07;;;11.10;99.90;;;;;;4955600;28;20415;-87
2022/09/13 12:21:56;;;;;;;5.18;3.95;;;11.10;99.90;;;;;;4994034;28;20479;-86
2022/09/13 12:24:33;;;;;;;6.32;3.95;;;11.10;99.90;;;;;;4993562;28;20512;-87
2022/09/13 12:27:04;;;;;;;5.20;4.13;;;11.10;99.90;;;;;;4975810;28;20397;-86
2022/09/13 12:29:51;;;;;;;5.43;4.50;;;11.10;99.90;;;;;;4974233;28;20445;-88
2022/09/13 12:32:22;;;;;;;5.30;4.05;;;11.10;99.90;;;;;;4955662;28;20438;-87
2022/09/13 12:35:05;;;;;;;7.40;4.30;;;11.10;99.90;;;;;;4939067;29;20397;-86
2022/09/13 12:37:57;;;;;;;6.60;4.47;;;11.10;99.90;;;;;;4955260;29;20396;-87
2022/09/13 12:40:53;;;;;;;5.47;3.88;;;11.10;99.90;;;;;;4954771;29;20396;-88
2022/09/13 12:43:54;;;;;;;4.93;3.92;;;11.10;99.90;;;;;;4954663;29;20420;-86
2022/09/13 12:46:48;;;;;;;6.22;4.20;;;11.10;99.90;;;;;;4973366;28;20410;-88
2022/09/13 12:49:30;;;;;;;5.85;4.35;;;11.10;99.90;;;;;;4972301;28;20430;-86
2022/09/13 12:52:25;;;;;;;5.50;3.92;;;11.10;99.90;;;;;;4970420;28;20895;-86
2022/09/13 12:54:54;;;;;;;5.30;4.18;;;11.10;99.90;;;;;;4954642;29;20444;-88
2022/09/13 12:57:49;;;;;;;5.38;4.00;;;11.00;99.90;;;;;;4954553;29;20411;-88
2022/09/13 13:00:32;;;;;;;5.18;4.10;;;11.10;99.90;;;;;;4954639;29;20396;-87
2022/09/13 13:03:12;;;;;;;6.68;4.22;;;11.10;99.90;;;;;;4954505;29;20417;-86
2022/09/13 13:05:54;;;;;;;5.03;4.10;;;11.10;99.90;;;;;;4957697;28;20404;-88
2022/09/13 13:08:21;;;;;;;9.15;4.60;;;11.10;99.90;;;;;;4974112;28;20430;-89
2022/09/13 13:11:08;;;;;;;5.43;4.07;;;11.10;99.90;;;;;;4973724;28;20457;-88
2022/09/13 13:13:45;;;;;;;5.97;4.40;;;11.10;99.90;;;;;;4973632;28;20407;-88
2022/09/13 13:16:26;;;;;;;7.05;4.40;;;11.10;99.90;;;;;;4972731;28;20402;-88
2022/09/13 13:18:58;;;;;;;6.23;5.07;;;11.00;99.90;;;;;;4975099;28;20399;-88
2022/09/13 13:21:36;;;;;;;5.30;3.90;;;11.00;99.90;;;;;;4992899;28;20484;-87
2022/09/13 13:24:15;;;;;;;5.72;4.15;;;11.10;99.90;;;;;;4993011;28;20408;-88
2022/09/13 13:26:49;;;;;;;6.05;4.25;;;11.00;99.90;;;;;;4976872;28;20436;-89
2022/09/13 13:29:17;;;;;;;6.18;4.10;;;11.00;99.90;;;;;;4993093;28;20399;-88
2022/09/13 13:32:06;;;;;;;5.65;3.78;;;11.00;99.90;;;;;;4992668;28;20399;-89